createdAt,value
2023-02-22T00:01:15.500Z,99434.13
2023-02-22T00:03:43.009Z,99439.41
2023-02-22T00:06:34.483Z,99434.91
2023-02-22T00:09:04.872Z,99435.41
2023-02-22T00:11:31.813Z,99431.19
2023-02-22T00:14:02.495Z,99436.19
2023-02-22T00:16:30.176Z,99432.84
2023-02-22T00:18:57.050Z,99431.69
2023-02-22T00:21:26.472Z,99435.88
2023-02-22T00:23:53.229Z,99444.53
2023-02-22T00:26:22.361Z,99439.47
2023-02-22T00:28:52.812Z,99439.47
2023-02-22T00:31:21.619Z,99439.78
2023-02-22T00:33:49.693Z,99440.53
2023-02-22T00:36:17.413Z,99439.47
2023-02-22T00:38:44.210Z,99443.69
2023-02-22T00:41:12.516Z,99437.91
2023-02-22T00:43:43.046Z,99437.13
2023-02-22T00:46:10.014Z,99442.50
2023-02-22T00:49:02.410Z,99441.72
2023-02-22T00:51:29.852Z,99437.22
2023-02-22T00:54:00.599Z,99449.53
2023-02-22T00:56:27.493Z,99440.75
2023-02-22T00:58:55.190Z,99444.16
2023-02-22T01:01:23.610Z,99442.59
2023-02-22T01:03:50.410Z,99439.66
2023-02-22T01:06:22.049Z,99444.44
2023-02-22T01:08:49.253Z,99439.97
2023-02-22T01:11:18.703Z,99430.50
2023-02-22T01:13:45.995Z,99440.25
2023-02-22T01:16:13.528Z,99434.00
2023-02-22T01:18:40.731Z,99433.06
2023-02-22T01:21:07.610Z,99426.91
2023-02-22T01:23:39.503Z,99426.22
2023-02-22T01:26:06.657Z,99428.09
2023-02-22T01:28:38.455Z,99420.38
2023-02-22T01:31:05.712Z,99420.38
2023-02-22T01:33:32.944Z,99423.03
2023-02-22T01:36:02.465Z,99418.53
2023-02-22T01:38:29.270Z,99415.91
2023-02-22T01:40:56.432Z,99414.03
2023-02-22T01:43:30.327Z,99411.41
2023-02-22T01:46:23.622Z,99416.47
2023-02-22T01:49:03.661Z,99413.25
2023-02-22T01:51:40.255Z,99409.34
2023-02-22T01:54:13.848Z,99414.16
2023-02-22T01:56:50.500Z,99403.91
2023-02-22T01:59:21.852Z,99417.56
2023-02-22T02:01:49.798Z,99408.59
2023-02-22T02:04:21.114Z,99411.81
2023-02-22T02:06:48.696Z,99413.66
2023-02-22T02:09:37.686Z,99407.72
2023-02-22T02:12:08.089Z,99409.56
2023-02-22T02:14:34.976Z,99403.44
2023-02-22T02:17:01.889Z,99401.00
2023-02-22T02:19:42.869Z,99400.88
2023-02-22T02:22:37.753Z,99394.34
2023-02-22T02:25:19.512Z,99396.91
2023-02-22T02:28:32.085Z,99397.88
2023-02-22T02:31:39.845Z,99395.38
2023-02-22T02:34:30.227Z,99395.72
2023-02-22T02:37:33.489Z,99399.41
2023-02-22T02:40:29.957Z,99397.78
2023-02-22T02:43:31.478Z,99393.97
2023-02-22T02:46:09.860Z,99393.09
2023-02-22T02:48:42.430Z,99393.38
2023-02-22T02:51:12.017Z,99383.34
2023-02-22T02:54:08.513Z,99387.06
2023-02-22T02:56:36.048Z,99385.47
2023-02-22T02:59:02.959Z,99386.56
2023-02-22T03:01:39.487Z,99384.44
2023-02-22T03:04:59.022Z,99387.47
2023-02-22T03:11:27.487Z,99394.06
2023-02-22T03:14:05.403Z,99389.97
2023-02-22T03:16:51.658Z,99390.94
2023-02-22T03:19:35.952Z,99392.59
2023-02-22T03:22:30.470Z,99389.00
2023-02-22T03:25:33.374Z,99390.84
2023-02-22T03:28:07.521Z,99392.91
2023-02-22T03:30:47.747Z,99398.63
2023-02-22T03:33:27.788Z,99397.66
2023-02-22T03:36:00.910Z,99385.41
2023-02-22T03:38:36.456Z,99392.53
2023-02-22T03:41:08.424Z,99383.84
2023-02-22T03:46:45.405Z,99390.66
2023-02-22T03:49:29.925Z,99387.53
2023-02-22T03:51:58.338Z,99387.66
2023-02-22T03:54:26.936Z,99392.41
2023-02-22T04:00:24.477Z,99392.41
2023-02-22T04:02:52.071Z,99393.41
2023-02-22T04:05:21.429Z,99393.41
2023-02-22T04:07:50.498Z,99393.97
2023-02-22T04:10:17.562Z,99391.34
2023-02-22T04:12:44.834Z,99391.81
2023-02-22T04:15:15.441Z,99400.22
2023-02-22T04:17:43.633Z,99401.00
2023-02-22T04:20:16.466Z,99406.44
2023-02-22T04:22:48.902Z,99403.22
2023-02-22T04:25:16.137Z,99404.00
2023-02-22T04:27:44.037Z,99402.94
2023-02-22T04:30:12.298Z,99401.88
2023-02-22T04:32:41.397Z,99406.63
2023-02-22T04:35:10.596Z,99400.41
2023-02-22T04:37:37.552Z,99400.41
2023-02-22T04:40:07.597Z,99395.63
2023-02-22T04:42:37.431Z,99400.59
2023-02-22T04:45:07.238Z,99399.53
2023-02-22T04:47:36.727Z,99396.69
2023-02-22T04:50:12.459Z,99395.16
2023-02-22T04:52:39.482Z,99395.53
2023-02-22T04:55:06.628Z,99392.41
2023-02-22T04:57:59.450Z,99391.03
2023-02-22T05:00:27.072Z,99401.94
2023-02-22T05:03:01.716Z,99393.78
2023-02-22T05:05:30.068Z,99394.06
2023-02-22T05:07:58.032Z,99394.84
2023-02-22T05:10:25.209Z,99390.66
2023-02-22T05:12:53.329Z,99398.44
2023-02-22T05:15:22.389Z,99396.47
2023-02-22T05:17:50.940Z,99397.84
2023-02-22T05:20:25.549Z,99395.88
2023-02-22T05:22:53.437Z,99399.00
2023-02-22T05:25:24.618Z,99391.81
2023-02-22T05:28:01.556Z,99394.84
2023-02-22T05:30:31.680Z,99391.41
2023-02-22T05:33:00.678Z,99391.72
2023-02-22T05:35:29.059Z,99395.63
2023-02-22T05:37:58.525Z,99385.31
2023-02-22T05:40:27.093Z,99393.19
2023-02-22T05:43:20.725Z,99396.59
2023-02-22T05:45:47.601Z,99402.31
2023-02-22T05:48:14.352Z,99402.81
2023-02-22T05:50:43.609Z,99400.19
2023-02-22T05:53:10.705Z,99394.16
2023-02-22T05:55:39.041Z,99401.56
2023-02-22T05:58:08.033Z,99398.66
2023-02-22T06:00:34.821Z,99394.94
2023-02-22T06:03:08.822Z,99397.94
2023-02-22T06:05:40.389Z,99400.38
2023-02-22T06:08:09.476Z,99404.97
2023-02-22T06:10:36.706Z,99405.69
2023-02-22T06:13:06.000Z,99412.44
2023-02-22T06:15:33.137Z,99415.44
2023-02-22T06:18:01.085Z,99412.44
2023-02-22T06:20:31.317Z,99413.50
2023-02-22T06:22:59.508Z,99416.13
2023-02-22T06:25:30.723Z,99422.94
2023-02-22T06:28:04.427Z,99422.94
2023-02-22T06:30:31.384Z,99418.47
2023-02-22T06:32:58.155Z,99424.00
2023-02-22T06:35:26.537Z,99426.63
2023-02-22T06:37:53.346Z,99425.66
2023-02-22T06:40:21.191Z,99424.50
2023-02-22T06:42:51.476Z,99423.63
2023-02-22T06:45:18.626Z,99425.88
2023-02-22T06:47:47.408Z,99427.75
2023-02-22T06:50:28.900Z,99423.47
2023-02-22T06:52:57.859Z,99433.78
2023-02-22T06:55:27.930Z,99429.28
2023-02-22T06:57:55.085Z,99424.22
2023-02-22T07:00:24.878Z,99428.00
2023-02-22T07:02:53.172Z,99425.09
2023-02-22T07:05:22.633Z,99432.22
2023-02-22T07:07:51.236Z,99428.00
2023-02-22T07:10:28.063Z,99430.25
2023-02-22T07:12:54.895Z,99430.78
2023-02-22T07:15:28.527Z,99429.63
2023-02-22T07:17:57.042Z,99435.06
2023-02-22T07:20:27.963Z,99426.09
2023-02-22T07:22:56.493Z,99424.75
2023-02-22T07:25:24.137Z,99431.56
2023-02-22T07:27:51.902Z,99429.22
2023-02-22T07:30:26.489Z,99431.56
2023-02-22T07:32:55.045Z,99430.78
2023-02-22T07:35:29.407Z,99423.38
2023-02-22T07:37:56.370Z,99426.97
2023-02-22T07:40:24.661Z,99428.25
2023-02-22T07:42:57.070Z,99425.94
2023-02-22T07:45:26.826Z,99427.19
2023-02-22T07:47:54.245Z,99420.56
2023-02-22T07:50:22.617Z,99424.16
2023-02-22T07:52:51.577Z,99414.41
2023-02-22T07:55:21.964Z,99421.72
2023-02-22T07:57:51.290Z,99412.97
2023-02-22T08:00:39.789Z,99415.81
2023-02-22T08:03:09.663Z,99409.16
2023-02-22T08:05:38.586Z,99413.84
2023-02-22T08:08:06.346Z,99411.44
2023-02-22T08:10:34.846Z,99414.25
2023-02-22T08:13:03.020Z,99411.03
2023-02-22T08:15:32.711Z,99408.59
2023-02-22T08:18:01.210Z,99406.16
2023-02-22T08:20:29.363Z,99402.63
2023-02-22T08:22:56.829Z,99406.53
2023-02-22T08:25:26.758Z,99404.09
2023-02-22T08:27:58.033Z,99401.97
2023-02-22T08:30:25.654Z,99399.50
2023-02-22T08:32:52.723Z,99399.41
2023-02-22T08:35:21.334Z,99403.09
2023-02-22T08:37:53.315Z,99403.09
2023-02-22T08:40:25.180Z,99407.59
2023-02-22T08:42:52.125Z,99396.38
2023-02-22T08:45:18.975Z,99396.28
2023-02-22T08:47:46.562Z,99400.56
2023-02-22T08:50:20.836Z,99411.09
2023-02-22T08:52:47.761Z,99400.16
2023-02-22T08:55:14.610Z,99394.50
2023-02-22T08:57:41.510Z,99398.41
2023-02-22T09:00:08.860Z,99400.25
2023-02-22T09:02:35.688Z,99396.72
2023-02-22T09:05:02.655Z,99393.88
2023-02-22T09:07:29.448Z,99396.19
2023-02-22T09:09:56.288Z,99399.13
2023-02-22T09:12:23.538Z,99397.97
2023-02-22T09:14:50.370Z,99392.56
2023-02-22T09:17:17.204Z,99389.03
2023-02-22T09:19:44.108Z,99388.59
2023-02-22T09:22:11.580Z,99387.84
2023-02-22T09:24:38.450Z,99392.97
2023-02-22T09:27:05.270Z,99397.97
2023-02-22T09:29:32.037Z,99389.75
2023-02-22T09:31:59.120Z,99388.88
2023-02-22T09:34:26.088Z,99393.22
2023-02-22T09:36:53.029Z,99392.63
2023-02-22T09:39:19.814Z,99385.19
2023-02-22T09:41:57.069Z,99392.50
2023-02-22T09:44:37.680Z,99385.06
2023-02-22T09:47:06.459Z,99386.78
2023-02-22T09:49:44.733Z,99384.66
2023-02-22T09:52:22.441Z,99387.47
2023-02-22T09:55:01.982Z,99379.72
2023-02-22T09:57:35.943Z,99379.59
2023-02-22T10:00:15.325Z,99379.47
2023-02-22T10:03:21.225Z,99368.59
2023-02-22T10:06:00.776Z,99373.72
2023-02-22T10:08:31.993Z,99374.72
2023-02-22T10:11:20.716Z,99371.44
2023-02-22T10:13:47.557Z,99372.56
2023-02-22T10:16:29.226Z,99367.97
2023-02-22T10:19:26.497Z,99361.44
2023-02-22T10:21:59.940Z,99360.97
2023-02-22T10:24:38.827Z,99358.50
2023-02-22T10:27:18.678Z,99354.34
2023-02-22T10:29:54.829Z,99360.59
2023-02-22T10:32:31.666Z,99351.56
2023-02-22T10:35:01.858Z,99351.13
2023-02-22T10:37:34.407Z,99343.06
2023-02-22T10:40:13.885Z,99347.25
2023-02-22T10:42:40.675Z,99344.28
2023-02-22T10:45:20.808Z,99341.50
2023-02-22T10:47:48.057Z,99344.59
2023-02-22T10:50:15.657Z,99344.44
2023-02-22T10:52:42.547Z,99338.09
2023-02-22T10:55:15.685Z,99341.06
2023-02-22T10:57:47.327Z,99341.50
2023-02-22T11:00:20.020Z,99334.69
2023-02-22T11:02:53.298Z,99337.31
2023-02-22T11:05:31.064Z,99332.69
2023-02-22T11:08:16.456Z,99329.56
2023-02-22T11:10:44.109Z,99329.88
2023-02-22T11:13:18.290Z,99321.81
2023-02-22T11:15:45.254Z,99327.69
2023-02-22T11:18:34.020Z,99318.69
2023-02-22T11:21:06.572Z,99321.50
2023-02-22T11:23:36.690Z,99314.50
2023-02-22T11:26:09.270Z,99303.50
2023-02-22T11:28:37.391Z,99307.81
2023-02-22T11:31:21.267Z,99304.56
2023-02-22T11:34:00.301Z,99303.94
2023-02-22T11:36:42.693Z,99300.84
2023-02-22T11:39:24.677Z,99294.19
2023-02-22T11:41:51.515Z,99289.66
2023-02-22T11:44:30.681Z,99293.56
2023-02-22T11:47:00.600Z,99291.53
2023-02-22T11:49:37.154Z,99290.13
2023-02-22T11:52:27.146Z,99288.44
2023-02-22T11:55:42.299Z,99291.38
2023-02-22T11:58:47.999Z,99285.31
2023-02-22T12:01:27.015Z,99277.56
2023-02-22T12:04:18.336Z,99275.53
2023-02-22T12:07:22.017Z,99275.69
2023-02-22T12:09:56.036Z,99271.47
2023-02-22T12:13:00.796Z,99273.97
2023-02-22T12:15:51.323Z,99262.00
2023-02-22T12:18:41.230Z,99265.59
2023-02-22T12:21:15.119Z,99267.59
2023-02-22T12:23:52.420Z,99262.19
2023-02-22T12:26:40.200Z,99252.22
2023-02-22T12:29:12.393Z,99246.34
2023-02-22T12:31:46.581Z,99243.03
2023-02-22T12:34:29.395Z,99248.03
2023-02-22T12:37:18.326Z,99244.75
2023-02-22T12:40:03.337Z,99236.50
2023-02-22T12:42:33.568Z,99243.81
2023-02-22T12:45:10.364Z,99240.25
2023-02-22T12:47:46.058Z,99231.69
2023-02-22T12:50:21.823Z,99227.00
2023-02-22T12:53:08.435Z,99228.44
2023-02-22T12:55:47.664Z,99222.03
2023-02-22T12:58:37.866Z,99218.78
2023-02-22T13:01:12.269Z,99222.06
2023-02-22T13:03:42.289Z,99216.19
2023-02-22T13:06:30.591Z,99217.09
2023-02-22T13:09:16.262Z,99211.19
2023-02-22T13:11:58.196Z,99209.66
2023-02-22T13:14:54.679Z,99200.34
2023-02-22T13:17:30.578Z,99202.50
2023-02-22T13:20:00.299Z,99207.94
2023-02-22T13:22:41.873Z,99213.06
2023-02-22T13:25:14.221Z,99206.06
2023-02-22T13:28:01.372Z,99205.44
2023-02-22T13:30:39.103Z,99203.13
2023-02-22T13:33:19.607Z,99203.72
2023-02-22T13:36:01.503Z,99203.56
2023-02-22T13:38:34.102Z,99198.28
2023-02-22T13:41:19.562Z,99198.13
2023-02-22T13:43:56.252Z,99193.00
2023-02-22T13:46:58.182Z,99194.72
2023-02-22T13:49:36.912Z,99193.63
2023-02-22T13:52:27.236Z,99184.94
2023-02-22T13:55:01.233Z,99187.09
2023-02-22T13:57:35.262Z,99194.09
2023-02-22T14:00:40.300Z,99180.88
2023-02-22T14:03:13.310Z,99181.19
2023-02-22T14:05:40.435Z,99179.78
2023-02-22T14:08:13.984Z,99175.41
2023-02-22T14:10:43.649Z,99174.50
2023-02-22T14:13:11.602Z,99180.41
2023-02-22T14:16:01.656Z,99179.94
2023-02-22T14:18:41.542Z,99178.09
2023-02-22T14:21:15.763Z,99172.66
2023-02-22T14:23:51.029Z,99172.97
2023-02-22T14:26:24.789Z,99168.94
2023-02-22T14:28:55.055Z,99167.06
2023-02-22T14:31:36.886Z,99167.09
2023-02-22T14:34:16.103Z,99161.16
2023-02-22T14:36:56.209Z,99145.19
2023-02-22T14:39:37.912Z,99167.09
2023-02-22T14:42:19.875Z,99158.72
2023-02-22T14:45:10.453Z,99155.91
2023-02-22T14:47:40.250Z,99163.22
2023-02-22T14:50:12.776Z,99159.66
2023-02-22T14:52:42.816Z,99158.13
2023-02-22T14:55:24.330Z,99157.34
2023-02-22T14:58:19.712Z,99157.03
2023-02-22T15:00:49.091Z,99158.44
2023-02-22T15:03:30.205Z,99162.63
2023-02-22T15:05:57.256Z,99157.66
2023-02-22T15:08:24.106Z,99155.63
2023-02-22T15:10:51.931Z,99157.97
2023-02-22T15:13:24.989Z,99152.22
2023-02-22T15:16:00.510Z,99159.22
2023-02-22T15:18:41.007Z,99151.63
2023-02-22T15:21:21.192Z,99156.16
2023-02-22T15:23:51.238Z,99161.28
2023-02-22T15:26:26.832Z,99160.47
2023-02-22T15:28:58.995Z,99149.75
2023-02-22T15:31:35.445Z,99152.44
2023-02-22T15:34:23.869Z,99149.78
2023-02-22T15:36:53.897Z,99159.09
2023-02-22T15:39:26.735Z,99152.91
2023-02-22T15:42:08.697Z,99147.47
2023-02-22T15:44:40.906Z,99155.72
2023-02-22T15:47:16.449Z,99155.41
2023-02-22T15:49:43.419Z,99156.47
2023-02-22T15:52:22.357Z,99159.59
2023-02-22T15:54:51.846Z,99154.94
2023-02-22T15:57:21.929Z,99156.94
2023-02-22T15:59:52.327Z,99162.56
2023-02-22T16:02:42.191Z,99156.94
2023-02-22T16:05:15.475Z,99151.78
2023-02-22T16:07:47.099Z,99158.63
2023-02-22T16:10:47.658Z,99160.31
2023-02-22T16:13:31.507Z,99163.56
2023-02-22T16:16:22.076Z,99167.28
2023-02-22T16:18:50.735Z,99160.94
2023-02-22T16:21:22.812Z,99163.41
2023-02-22T16:24:01.333Z,99167.88
2023-02-22T16:26:35.475Z,99169.09
2023-02-22T16:29:05.965Z,99174.69
2023-02-22T16:31:38.128Z,99178.69
2023-02-22T16:34:10.418Z,99181.47
2023-02-22T16:36:46.723Z,99183.47
2023-02-22T16:39:24.426Z,99189.19
2023-02-22T16:41:51.920Z,99184.81
2023-02-22T16:44:19.217Z,99188.22
2023-02-22T16:46:46.056Z,99184.00
2023-02-22T16:49:13.643Z,99190.69
2023-02-22T16:51:58.654Z,99194.50
2023-02-22T16:54:29.912Z,99198.22
2023-02-22T16:56:58.330Z,99200.69
2023-02-22T16:59:25.215Z,99192.13
2023-02-22T17:01:52.082Z,99198.78
2023-02-22T17:04:24.205Z,99200.59
2023-02-22T17:06:52.455Z,99195.94
2023-02-22T17:09:20.022Z,99207.66
2023-02-22T17:11:50.771Z,99197.44
2023-02-22T17:14:23.144Z,99209.34
2023-02-22T17:16:51.412Z,99203.44
2023-02-22T17:19:26.288Z,99205.69
2023-02-22T17:21:53.635Z,99212.03
2023-02-22T17:24:25.171Z,99209.72
2023-02-22T17:26:52.472Z,99209.53
2023-02-22T17:29:20.663Z,99211.88
2023-02-22T17:31:48.058Z,99210.31
2023-02-22T17:34:15.818Z,99207.00
2023-02-22T17:36:42.766Z,99209.94
2023-02-22T17:39:10.104Z,99209.09
2023-02-22T17:41:40.693Z,99208.72
2023-02-22T17:44:08.614Z,99208.44
2023-02-22T17:46:38.859Z,99206.09
2023-02-22T17:49:06.463Z,99207.41
2023-02-22T17:51:33.954Z,99207.69
2023-02-22T17:54:01.168Z,99200.78
2023-02-22T17:56:28.456Z,99197.97
2023-02-22T17:58:56.312Z,99203.53
2023-02-22T18:01:29.794Z,99201.28
2023-02-22T18:04:00.835Z,99205.84
2023-02-22T18:06:30.576Z,99205.06
2023-02-22T18:09:00.356Z,99208.69
2023-02-22T18:11:29.403Z,99205.78
2023-02-22T18:13:57.917Z,99201.91
2023-02-22T18:16:26.662Z,99206.38
2023-02-22T18:18:55.482Z,99200.06
2023-02-22T18:21:23.809Z,99197.63
2023-02-22T18:23:51.040Z,99197.22
2023-02-22T18:26:20.981Z,99196.47
2023-02-22T18:28:48.837Z,99196.28
2023-02-22T18:31:19.791Z,99200.38
2023-02-22T18:33:50.999Z,99194.41
2023-02-22T18:36:20.926Z,99194.22
2023-02-22T18:38:48.623Z,99202.97
2023-02-22T18:41:18.482Z,99197.34
2023-02-22T18:43:46.955Z,99206.00
2023-02-22T18:46:16.946Z,99204.53
2023-02-22T18:48:46.062Z,99204.31
2023-02-22T18:51:16.251Z,99205.94
2023-02-22T18:53:47.738Z,99193.97
2023-02-22T18:56:19.164Z,99195.09
2023-02-22T18:58:47.334Z,99205.19
2023-02-22T19:01:19.823Z,99200.34
2023-02-22T19:03:47.607Z,99206.84
2023-02-22T19:06:17.872Z,99203.00
2023-02-22T19:08:46.997Z,99198.66
2023-02-22T19:11:21.339Z,99197.59
2023-02-22T19:13:52.712Z,99195.19
2023-02-22T19:16:22.359Z,99196.75
2023-02-22T19:18:52.697Z,99195.41
2023-02-22T19:21:21.361Z,99187.88
2023-02-22T19:23:49.877Z,99188.19
2023-02-22T19:26:26.546Z,99190.31
2023-02-22T19:28:56.424Z,99187.19
2023-02-22T19:31:28.986Z,99188.34
2023-02-22T19:34:00.713Z,99191.53
2023-02-22T19:36:28.903Z,99188.69
2023-02-22T19:38:59.110Z,99196.06
2023-02-22T19:41:26.347Z,99194.22
2023-02-22T19:43:57.350Z,99193.31
2023-02-22T19:46:25.585Z,99190.97
2023-02-22T19:48:54.790Z,99197.22
2023-02-22T19:51:25.100Z,99200.09
2023-02-22T19:53:56.120Z,99200.31
2023-02-22T19:56:24.024Z,99198.97
2023-02-22T19:58:53.207Z,99193.44
2023-02-22T20:01:24.934Z,99198.97
2023-02-22T20:04:01.890Z,99210.75
2023-02-22T20:06:33.592Z,99213.41
2023-02-22T20:09:02.525Z,99214.69
2023-02-22T20:11:30.485Z,99209.47
2023-02-22T20:13:58.358Z,99215.56
2023-02-22T20:16:26.178Z,99223.69
2023-02-22T20:18:56.904Z,99218.44
2023-02-22T20:21:33.415Z,99218.94
2023-02-22T20:24:03.108Z,99217.97
2023-02-22T20:26:33.787Z,99226.66
2023-02-22T20:29:04.894Z,99218.84
2023-02-22T20:31:34.167Z,99220.91
2023-02-22T20:34:03.019Z,99228.97
2023-02-22T20:36:33.377Z,99221.59
2023-02-22T20:39:03.536Z,99223.44
2023-02-22T20:41:33.875Z,99225.84
2023-02-22T20:44:03.063Z,99223.31
2023-02-22T20:46:33.256Z,99224.63
2023-02-22T20:49:02.845Z,99222.28
2023-02-22T20:51:31.361Z,99229.13
2023-02-22T20:54:01.411Z,99217.94
2023-02-22T20:56:33.604Z,99221.59
2023-02-22T20:59:04.379Z,99221.06
2023-02-22T21:01:32.588Z,99217.88
2023-02-22T21:04:05.731Z,99214.16
2023-02-22T21:06:34.914Z,99217.31
2023-02-22T21:09:04.753Z,99215.78
2023-02-22T21:11:32.482Z,99223.63
2023-02-22T21:14:02.898Z,99222.09
2023-02-22T21:16:36.286Z,99223.63
2023-02-22T21:19:08.172Z,99222.63
2023-02-22T21:21:36.598Z,99218.88
2023-02-22T21:24:04.524Z,99215.97
2023-02-22T21:26:35.201Z,99216.47
2023-02-22T21:29:06.226Z,99208.41
2023-02-22T21:31:34.568Z,99208.19
2023-02-22T21:34:02.710Z,99212.34
2023-02-22T21:36:31.186Z,99208.72
2023-02-22T21:39:01.692Z,99204.91
2023-02-22T21:41:31.591Z,99209.09
2023-02-22T21:43:59.589Z,99206.19
2023-02-22T21:46:29.144Z,99207.81
2023-02-22T21:48:58.505Z,99199.50
2023-02-22T21:51:29.274Z,99210.47
2023-02-22T21:53:56.248Z,99205.75
2023-02-22T21:56:25.934Z,99205.75
2023-02-22T21:58:57.606Z,99203.97
2023-02-22T22:01:29.669Z,99208.41
2023-02-22T22:03:58.714Z,99201.66
2023-02-22T22:06:28.059Z,99201.19
2023-02-22T22:08:57.034Z,99197.06
2023-02-22T22:11:24.050Z,99197.06
2023-02-22T22:13:53.299Z,99200.50
2023-02-22T22:16:20.498Z,99196.09
2023-02-22T22:18:47.349Z,99199.19
2023-02-22T22:21:19.819Z,99196.56
2023-02-22T22:23:48.070Z,99194.50
2023-02-22T22:26:18.061Z,99195.56
2023-02-22T22:28:50.339Z,99188.50
2023-02-22T22:31:20.271Z,99192.44
2023-02-22T22:33:48.075Z,99190.41
2023-02-22T22:36:17.139Z,99185.72
2023-02-22T22:38:44.840Z,99183.63
2023-02-22T22:41:11.758Z,99188.41
2023-02-22T22:43:39.241Z,99178.59
2023-02-22T22:46:07.648Z,99192.13
2023-02-22T22:48:36.574Z,99192.16
2023-02-22T22:51:06.826Z,99184.38
2023-02-22T22:53:34.559Z,99188.03
2023-02-22T22:56:07.208Z,99190.91
2023-02-22T22:58:35.465Z,99184.69
2023-02-22T23:01:03.008Z,99189.38
2023-02-22T23:03:30.358Z,99184.88
2023-02-22T23:06:01.881Z,99179.94
2023-02-22T23:08:28.769Z,99188.84
2023-02-22T23:10:56.806Z,99189.13
2023-02-22T23:13:24.039Z,99188.84
2023-02-22T23:15:51.098Z,99190.22
2023-02-22T23:18:17.921Z,99189.47
2023-02-22T23:20:44.823Z,99187.09
2023-02-22T23:23:11.653Z,99187.09
2023-02-22T23:25:38.551Z,99180.06
2023-02-22T23:28:05.463Z,99179.78
2023-02-22T23:30:32.339Z,99185.06
2023-02-22T23:32:59.185Z,99187.19
2023-02-22T23:35:26.217Z,99178.56
2023-02-22T23:37:53.054Z,99168.94
2023-02-22T23:40:19.890Z,99179.09
2023-02-22T23:42:50.804Z,99182.00
2023-02-22T23:45:18.416Z,99180.97
2023-02-22T23:47:45.238Z,99179.41
2023-02-22T23:50:12.107Z,99174.44
2023-02-22T23:52:39.018Z,99173.94
2023-02-22T23:55:06.161Z,99168.19
2023-02-22T23:57:33.026Z,99172.13
2023-02-22T23:59:59.887Z,99172.41
